sim
Sign-in with your pilot id or email,
or register
Callsign
Passwort

Schedule Details

Flight Number: DLH2229 (2)
Departure: Paris Charles de Gaulle Airport (LFPG) at 10:40
Arrival: Munich Airport (EDDM) at 12:05
Route: Lufthansa Passenger Schedule. Enter filed route here before submitting Pirep.

Weather Information
Getting current METAR information for LFPG 250900Z 28014KT 9999 BKN020 FEW021TCU 11/08 Q1000 TEMPO 30015G25KT 4000 SHRA BKN020TCU
Getting current METAR information for EDDM 250920Z 28009KT 250V320 9999 -RA FEW015 BKN048 10/07 Q1002 NOSIG

Schedule Frequency

Route Map